sensor_id;sensor_type;location;lat;lon;timestamp;P1;durP1;ratioP1;P2;durP2;ratioP2
59169;SDS011;52474;52.236;5.114;2023-01-30T00:00:51;35.38;;;15.27;;
59169;SDS011;52474;52.236;5.114;2023-01-30T00:03:19;33.00;;;15.15;;
59169;SDS011;52474;52.236;5.114;2023-01-30T00:05:46;30.83;;;13.23;;
59169;SDS011;52474;52.236;5.114;2023-01-30T00:08:12;32.17;;;13.63;;
59169;SDS011;52474;52.236;5.114;2023-01-30T00:10:37;29.13;;;13.98;;
59169;SDS011;52474;52.236;5.114;2023-01-30T00:13:03;33.42;;;13.18;;
59169;SDS011;52474;52.236;5.114;2023-01-30T00:15:29;33.53;;;13.15;;
59169;SDS011;52474;52.236;5.114;2023-01-30T00:17:55;32.15;;;12.55;;
59169;SDS011;52474;52.236;5.114;2023-01-30T00:20:21;25.20;;;12.30;;
59169;SDS011;52474;52.236;5.114;2023-01-30T00:22:46;25.63;;;11.98;;
59169;SDS011;52474;52.236;5.114;2023-01-30T00:25:12;18.02;;;8.25;;
59169;SDS011;52474;52.236;5.114;2023-01-30T00:27:38;16.88;;;7.18;;
59169;SDS011;52474;52.236;5.114;2023-01-30T00:30:04;15.32;;;6.60;;
59169;SDS011;52474;52.236;5.114;2023-01-30T00:32:32;15.38;;;5.80;;
59169;SDS011;52474;52.236;5.114;2023-01-30T00:34:57;19.50;;;6.72;;
59169;SDS011;52474;52.236;5.114;2023-01-30T00:37:23;17.38;;;6.97;;
59169;SDS011;52474;52.236;5.114;2023-01-30T00:39:49;22.90;;;6.70;;
59169;SDS011;52474;52.236;5.114;2023-01-30T00:42:15;14.15;;;6.10;;
59169;SDS011;52474;52.236;5.114;2023-01-30T00:44:59;16.98;;;6.10;;
59169;SDS011;52474;52.236;5.114;2023-01-30T00:47:43;11.65;;;5.68;;
59169;SDS011;52474;52.236;5.114;2023-01-30T00:50:09;17.50;;;5.88;;
59169;SDS011;52474;52.236;5.114;2023-01-30T00:52:35;14.10;;;6.15;;
59169;SDS011;52474;52.236;5.114;2023-01-30T00:55:01;19.10;;;6.70;;
59169;SDS011;52474;52.236;5.114;2023-01-30T00:57:28;13.95;;;5.55;;
59169;SDS011;52474;52.236;5.114;2023-01-30T00:59:53;15.10;;;5.10;;
59169;SDS011;52474;52.236;5.114;2023-01-30T01:02:19;12.75;;;4.80;;
59169;SDS011;52474;52.236;5.114;2023-01-30T01:04:45;18.65;;;5.38;;
59169;SDS011;52474;52.236;5.114;2023-01-30T01:07:11;13.38;;;5.93;;
59169;SDS011;52474;52.236;5.114;2023-01-30T01:09:38;15.57;;;5.63;;
59169;SDS011;52474;52.236;5.114;2023-01-30T01:12:04;13.10;;;5.15;;
59169;SDS011;52474;52.236;5.114;2023-01-30T01:14:31;15.43;;;5.10;;
59169;SDS011;52474;52.236;5.114;2023-01-30T01:16:58;13.45;;;5.55;;
59169;SDS011;52474;52.236;5.114;2023-01-30T01:19:25;16.98;;;4.72;;
59169;SDS011;52474;52.236;5.114;2023-01-30T01:21:51;15.30;;;5.05;;
59169;SDS011;52474;52.236;5.114;2023-01-30T01:24:16;15.20;;;5.20;;
59169;SDS011;52474;52.236;5.114;2023-01-30T01:26:42;12.25;;;4.75;;
59169;SDS011;52474;52.236;5.114;2023-01-30T01:29:10;16.30;;;5.60;;
59169;SDS011;52474;52.236;5.114;2023-01-30T01:31:41;18.23;;;6.55;;
59169;SDS011;52474;52.236;5.114;2023-01-30T01:34:07;15.82;;;6.03;;
59169;SDS011;52474;52.236;5.114;2023-01-30T01:36:33;17.55;;;5.13;;
59169;SDS011;52474;52.236;5.114;2023-01-30T01:39:00;18.90;;;5.53;;
59169;SDS011;52474;52.236;5.114;2023-01-30T01:41:27;20.40;;;5.70;;
59169;SDS011;52474;52.236;5.114;2023-01-30T01:44:07;16.10;;;5.10;;
59169;SDS011;52474;52.236;5.114;2023-01-30T01:46:56;22.23;;;5.30;;
59169;SDS011;52474;52.236;5.114;2023-01-30T01:49:25;19.98;;;5.63;;
59169;SDS011;52474;52.236;5.114;2023-01-30T01:54:42;21.02;;;5.05;;
59169;SDS011;52474;52.236;5.114;2023-01-30T01:57:29;16.35;;;4.20;;
59169;SDS011;52474;52.236;5.114;2023-01-30T02:02:39;17.42;;;4.43;;
59169;SDS011;52474;52.236;5.114;2023-01-30T02:05:09;15.10;;;5.22;;
59169;SDS011;52474;52.236;5.114;2023-01-30T02:07:38;18.58;;;4.45;;
59169;SDS011;52474;52.236;5.114;2023-01-30T02:12:34;10.90;;;3.38;;
59169;SDS011;52474;52.236;5.114;2023-01-30T02:15:02;12.05;;;4.05;;
59169;SDS011;52474;52.236;5.114;2023-01-30T02:17:30;8.73;;;3.78;;
59169;SDS011;52474;52.236;5.114;2023-01-30T02:20:04;11.35;;;3.80;;
59169;SDS011;52474;52.236;5.114;2023-01-30T02:31:34;11.18;;;2.95;;
59169;SDS011;52474;52.236;5.114;2023-01-30T02:42:28;15.55;;;3.47;;
59169;SDS011;52474;52.236;5.114;2023-01-30T02:45:16;11.32;;;3.33;;
59169;SDS011;52474;52.236;5.114;2023-01-30T02:47:59;11.80;;;3.50;;
59169;SDS011;52474;52.236;5.114;2023-01-30T02:50:29;14.52;;;3.17;;
59169;SDS011;52474;52.236;5.114;2023-01-30T02:52:59;9.70;;;2.95;;
59169;SDS011;52474;52.236;5.114;2023-01-30T02:55:26;15.93;;;4.25;;
59169;SDS011;52474;52.236;5.114;2023-01-30T02:57:54;16.33;;;3.38;;
59169;SDS011;52474;52.236;5.114;2023-01-30T03:00:33;10.02;;;2.63;;
59169;SDS011;52474;52.236;5.114;2023-01-30T03:09:14;11.10;;;2.95;;
59169;SDS011;52474;52.236;5.114;2023-01-30T03:11:48;10.00;;;2.97;;
59169;SDS011;52474;52.236;5.114;2023-01-30T03:17:09;7.20;;;3.38;;
59169;SDS011;52474;52.236;5.114;2023-01-30T03:19:37;12.25;;;3.42;;
59169;SDS011;52474;52.236;5.114;2023-01-30T03:22:03;12.20;;;2.67;;
59169;SDS011;52474;52.236;5.114;2023-01-30T03:24:29;14.00;;;3.28;;
59169;SDS011;52474;52.236;5.114;2023-01-30T03:27:01;12.93;;;3.60;;
59169;SDS011;52474;52.236;5.114;2023-01-30T03:29:33;10.77;;;3.17;;
59169;SDS011;52474;52.236;5.114;2023-01-30T03:31:59;10.13;;;3.15;;
59169;SDS011;52474;52.236;5.114;2023-01-30T03:34:25;14.52;;;3.55;;
59169;SDS011;52474;52.236;5.114;2023-01-30T03:36:50;16.00;;;2.95;;
59169;SDS011;52474;52.236;5.114;2023-01-30T03:39:16;13.65;;;2.63;;
59169;SDS011;52474;52.236;5.114;2023-01-30T03:41:42;14.98;;;2.92;;
59169;SDS011;52474;52.236;5.114;2023-01-30T03:44:08;11.00;;;2.80;;
59169;SDS011;52474;52.236;5.114;2023-01-30T03:46:34;12.38;;;2.78;;
59169;SDS011;52474;52.236;5.114;2023-01-30T03:49:00;18.27;;;3.25;;
59169;SDS011;52474;52.236;5.114;2023-01-30T03:51:26;13.40;;;2.50;;
59169;SDS011;52474;52.236;5.114;2023-01-30T03:53:51;11.15;;;2.90;;
59169;SDS011;52474;52.236;5.114;2023-01-30T03:56:17;12.60;;;2.63;;
59169;SDS011;52474;52.236;5.114;2023-01-30T03:58:43;11.75;;;2.75;;
59169;SDS011;52474;52.236;5.114;2023-01-30T04:01:18;12.05;;;2.95;;
59169;SDS011;52474;52.236;5.114;2023-01-30T04:03:44;19.02;;;4.18;;
59169;SDS011;52474;52.236;5.114;2023-01-30T04:06:10;13.05;;;2.90;;
59169;SDS011;52474;52.236;5.114;2023-01-30T04:08:37;8.10;;;2.78;;
59169;SDS011;52474;52.236;5.114;2023-01-30T04:11:04;14.70;;;3.00;;
59169;SDS011;52474;52.236;5.114;2023-01-30T04:13:29;9.70;;;2.35;;
59169;SDS011;52474;52.236;5.114;2023-01-30T04:19:02;13.07;;;2.78;;
59169;SDS011;52474;52.236;5.114;2023-01-30T04:21:31;12.00;;;3.00;;
59169;SDS011;52474;52.236;5.114;2023-01-30T04:23:56;14.02;;;2.35;;
59169;SDS011;52474;52.236;5.114;2023-01-30T04:26:22;11.73;;;2.63;;
59169;SDS011;52474;52.236;5.114;2023-01-30T04:28:48;11.65;;;3.10;;
59169;SDS011;52474;52.236;5.114;2023-01-30T04:31:14;13.55;;;3.55;;
59169;SDS011;52474;52.236;5.114;2023-01-30T04:36:20;13.40;;;2.75;;
59169;SDS011;52474;52.236;5.114;2023-01-30T04:38:46;11.70;;;2.20;;
59169;SDS011;52474;52.236;5.114;2023-01-30T04:41:11;11.63;;;3.17;;
59169;SDS011;52474;52.236;5.114;2023-01-30T04:43:40;12.77;;;2.22;;
59169;SDS011;52474;52.236;5.114;2023-01-30T04:46:24;13.88;;;3.22;;
59169;SDS011;52474;52.236;5.114;2023-01-30T04:48:50;9.00;;;2.95;;
59169;SDS011;52474;52.236;5.114;2023-01-30T04:51:16;6.70;;;2.10;;
59169;SDS011;52474;52.236;5.114;2023-01-30T04:53:42;11.00;;;1.75;;
59169;SDS011;52474;52.236;5.114;2023-01-30T04:56:08;12.10;;;2.63;;
59169;SDS011;52474;52.236;5.114;2023-01-30T04:58:33;10.10;;;2.17;;
59169;SDS011;52474;52.236;5.114;2023-01-30T05:01:13;11.77;;;2.92;;
59169;SDS011;52474;52.236;5.114;2023-01-30T05:04:00;6.72;;;2.42;;
59169;SDS011;52474;52.236;5.114;2023-01-30T05:06:26;5.45;;;1.95;;
59169;SDS011;52474;52.236;5.114;2023-01-30T05:08:54;15.02;;;3.35;;
59169;SDS011;52474;52.236;5.114;2023-01-30T05:11:21;10.98;;;3.45;;
59169;SDS011;52474;52.236;5.114;2023-01-30T05:13:48;15.75;;;3.00;;
59169;SDS011;52474;52.236;5.114;2023-01-30T05:16:14;12.40;;;2.20;;
59169;SDS011;52474;52.236;5.114;2023-01-30T05:18:41;9.13;;;2.30;;
59169;SDS011;52474;52.236;5.114;2023-01-30T05:21:09;17.33;;;2.97;;
59169;SDS011;52474;52.236;5.114;2023-01-30T05:23:36;12.45;;;2.53;;
59169;SDS011;52474;52.236;5.114;2023-01-30T05:26:02;12.77;;;3.88;;
59169;SDS011;52474;52.236;5.114;2023-01-30T05:28:28;15.25;;;2.53;;
59169;SDS011;52474;52.236;5.114;2023-01-30T05:31:04;12.40;;;2.10;;
59169;SDS011;52474;52.236;5.114;2023-01-30T05:33:31;12.75;;;2.00;;
59169;SDS011;52474;52.236;5.114;2023-01-30T05:35:57;17.83;;;2.03;;
59169;SDS011;52474;52.236;5.114;2023-01-30T05:38:24;10.50;;;2.28;;
59169;SDS011;52474;52.236;5.114;2023-01-30T05:41:00;13.13;;;2.30;;
59169;SDS011;52474;52.236;5.114;2023-01-30T05:43:27;9.57;;;2.15;;
59169;SDS011;52474;52.236;5.114;2023-01-30T05:45:54;11.00;;;2.78;;
59169;SDS011;52474;52.236;5.114;2023-01-30T05:48:21;14.32;;;3.30;;
59169;SDS011;52474;52.236;5.114;2023-01-30T05:50:51;9.68;;;1.95;;
59169;SDS011;52474;52.236;5.114;2023-01-30T05:53:18;17.63;;;2.08;;
59169;SDS011;52474;52.236;5.114;2023-01-30T05:55:45;9.75;;;2.33;;
59169;SDS011;52474;52.236;5.114;2023-01-30T05:58:11;11.00;;;3.35;;
59169;SDS011;52474;52.236;5.114;2023-01-30T06:00:37;14.45;;;2.40;;
59169;SDS011;52474;52.236;5.114;2023-01-30T06:03:02;17.17;;;3.08;;
59169;SDS011;52474;52.236;5.114;2023-01-30T06:05:28;10.20;;;1.48;;
59169;SDS011;52474;52.236;5.114;2023-01-30T06:07:54;11.05;;;2.08;;
59169;SDS011;52474;52.236;5.114;2023-01-30T06:10:20;13.55;;;2.42;;
59169;SDS011;52474;52.236;5.114;2023-01-30T06:12:45;10.85;;;2.28;;
59169;SDS011;52474;52.236;5.114;2023-01-30T06:15:11;17.00;;;2.65;;
59169;SDS011;52474;52.236;5.114;2023-01-30T06:17:41;16.83;;;2.38;;
59169;SDS011;52474;52.236;5.114;2023-01-30T06:20:08;17.20;;;2.50;;
59169;SDS011;52474;52.236;5.114;2023-01-30T06:22:34;17.27;;;2.58;;
59169;SDS011;52474;52.236;5.114;2023-01-30T06:25:01;9.82;;;2.58;;
59169;SDS011;52474;52.236;5.114;2023-01-30T06:27:27;13.80;;;2.08;;
59169;SDS011;52474;52.236;5.114;2023-01-30T06:29:53;16.02;;;2.35;;
59169;SDS011;52474;52.236;5.114;2023-01-30T06:32:19;16.00;;;2.30;;
59169;SDS011;52474;52.236;5.114;2023-01-30T06:34:44;15.25;;;2.72;;
59169;SDS011;52474;52.236;5.114;2023-01-30T06:37:10;23.88;;;2.70;;
59169;SDS011;52474;52.236;5.114;2023-01-30T06:39:35;16.33;;;2.97;;
59169;SDS011;52474;52.236;5.114;2023-01-30T06:42:01;17.75;;;1.95;;
59169;SDS011;52474;52.236;5.114;2023-01-30T06:44:27;19.77;;;2.95;;
59169;SDS011;52474;52.236;5.114;2023-01-30T06:46:52;15.35;;;2.28;;
59169;SDS011;52474;52.236;5.114;2023-01-30T06:49:18;16.13;;;2.53;;
59169;SDS011;52474;52.236;5.114;2023-01-30T06:51:44;19.52;;;2.83;;
59169;SDS011;52474;52.236;5.114;2023-01-30T06:54:09;12.77;;;2.00;;
59169;SDS011;52474;52.236;5.114;2023-01-30T06:56:35;14.43;;;2.85;;
59169;SDS011;52474;52.236;5.114;2023-01-30T06:59:01;15.10;;;2.53;;
59169;SDS011;52474;52.236;5.114;2023-01-30T07:01:26;14.13;;;2.25;;
59169;SDS011;52474;52.236;5.114;2023-01-30T07:03:52;19.15;;;2.40;;
59169;SDS011;52474;52.236;5.114;2023-01-30T07:06:18;12.20;;;2.08;;
59169;SDS011;52474;52.236;5.114;2023-01-30T07:08:44;18.38;;;3.00;;
59169;SDS011;52474;52.236;5.114;2023-01-30T07:11:09;13.23;;;1.98;;
59169;SDS011;52474;52.236;5.114;2023-01-30T07:13:35;13.65;;;2.47;;
59169;SDS011;52474;52.236;5.114;2023-01-30T07:16:01;22.23;;;4.35;;
59169;SDS011;52474;52.236;5.114;2023-01-30T07:18:27;12.40;;;2.22;;
59169;SDS011;52474;52.236;5.114;2023-01-30T07:20:53;15.35;;;2.33;;
59169;SDS011;52474;52.236;5.114;2023-01-30T07:23:19;13.10;;;2.45;;
59169;SDS011;52474;52.236;5.114;2023-01-30T07:25:45;13.93;;;2.45;;
59169;SDS011;52474;52.236;5.114;2023-01-30T07:28:10;13.88;;;2.50;;
59169;SDS011;52474;52.236;5.114;2023-01-30T07:30:36;16.92;;;3.35;;
59169;SDS011;52474;52.236;5.114;2023-01-30T07:33:02;17.90;;;2.45;;
59169;SDS011;52474;52.236;5.114;2023-01-30T07:35:30;17.42;;;2.50;;
59169;SDS011;52474;52.236;5.114;2023-01-30T07:37:58;13.32;;;2.63;;
59169;SDS011;52474;52.236;5.114;2023-01-30T07:40:24;15.65;;;2.25;;
59169;SDS011;52474;52.236;5.114;2023-01-30T07:43:01;11.27;;;1.80;;
59169;SDS011;52474;52.236;5.114;2023-01-30T07:45:42;18.48;;;2.85;;
59169;SDS011;52474;52.236;5.114;2023-01-30T07:48:10;11.45;;;2.25;;
59169;SDS011;52474;52.236;5.114;2023-01-30T07:50:38;16.08;;;2.88;;
59169;SDS011;52474;52.236;5.114;2023-01-30T07:53:04;14.68;;;1.92;;
59169;SDS011;52474;52.236;5.114;2023-01-30T07:55:31;17.67;;;2.95;;
59169;SDS011;52474;52.236;5.114;2023-01-30T07:57:57;14.68;;;3.10;;
59169;SDS011;52474;52.236;5.114;2023-01-30T08:00:23;15.35;;;2.33;;
59169;SDS011;52474;52.236;5.114;2023-01-30T08:02:49;19.50;;;2.55;;
59169;SDS011;52474;52.236;5.114;2023-01-30T08:05:15;21.17;;;2.55;;
59169;SDS011;52474;52.236;5.114;2023-01-30T08:07:41;23.10;;;2.92;;
59169;SDS011;52474;52.236;5.114;2023-01-30T08:10:06;12.23;;;2.75;;
59169;SDS011;52474;52.236;5.114;2023-01-30T08:12:33;23.45;;;3.55;;
59169;SDS011;52474;52.236;5.114;2023-01-30T08:14:59;17.58;;;3.92;;
59169;SDS011;52474;52.236;5.114;2023-01-30T08:17:24;16.17;;;3.78;;
59169;SDS011;52474;52.236;5.114;2023-01-30T08:19:50;16.25;;;2.35;;
59169;SDS011;52474;52.236;5.114;2023-01-30T08:22:16;16.40;;;2.58;;
59169;SDS011;52474;52.236;5.114;2023-01-30T08:24:42;16.65;;;2.92;;
59169;SDS011;52474;52.236;5.114;2023-01-30T08:27:07;14.07;;;2.38;;
59169;SDS011;52474;52.236;5.114;2023-01-30T08:29:33;13.13;;;2.13;;
59169;SDS011;52474;52.236;5.114;2023-01-30T08:31:59;13.70;;;2.45;;
59169;SDS011;52474;52.236;5.114;2023-01-30T08:34:25;11.80;;;2.30;;
59169;SDS011;52474;52.236;5.114;2023-01-30T08:36:51;18.20;;;3.17;;
59169;SDS011;52474;52.236;5.114;2023-01-30T08:39:17;19.75;;;2.40;;
59169;SDS011;52474;52.236;5.114;2023-01-30T08:41:43;16.08;;;2.55;;
59169;SDS011;52474;52.236;5.114;2023-01-30T08:44:09;12.05;;;2.22;;
59169;SDS011;52474;52.236;5.114;2023-01-30T08:46:35;13.70;;;1.90;;
59169;SDS011;52474;52.236;5.114;2023-01-30T08:49:02;16.92;;;2.30;;
59169;SDS011;52474;52.236;5.114;2023-01-30T08:51:28;23.45;;;3.00;;
59169;SDS011;52474;52.236;5.114;2023-01-30T08:53:54;16.25;;;2.53;;
59169;SDS011;52474;52.236;5.114;2023-01-30T08:56:20;14.25;;;2.55;;
59169;SDS011;52474;52.236;5.114;2023-01-30T08:58:45;18.95;;;2.25;;
59169;SDS011;52474;52.236;5.114;2023-01-30T09:01:13;13.32;;;2.25;;
59169;SDS011;52474;52.236;5.114;2023-01-30T09:03:40;14.55;;;2.70;;
59169;SDS011;52474;52.236;5.114;2023-01-30T09:06:06;14.65;;;2.53;;
59169;SDS011;52474;52.236;5.114;2023-01-30T09:08:33;16.40;;;2.78;;
59169;SDS011;52474;52.236;5.114;2023-01-30T09:10:59;13.20;;;3.15;;
59169;SDS011;52474;52.236;5.114;2023-01-30T09:13:26;12.43;;;2.55;;
59169;SDS011;52474;52.236;5.114;2023-01-30T09:15:53;14.45;;;2.20;;
59169;SDS011;52474;52.236;5.114;2023-01-30T09:18:19;19.70;;;2.85;;
59169;SDS011;52474;52.236;5.114;2023-01-30T09:20:44;17.00;;;2.33;;
59169;SDS011;52474;52.236;5.114;2023-01-30T09:23:10;16.45;;;2.42;;
59169;SDS011;52474;52.236;5.114;2023-01-30T09:25:36;12.93;;;3.53;;
59169;SDS011;52474;52.236;5.114;2023-01-30T09:28:02;17.33;;;2.72;;
59169;SDS011;52474;52.236;5.114;2023-01-30T09:30:28;10.70;;;1.90;;
59169;SDS011;52474;52.236;5.114;2023-01-30T09:32:53;17.55;;;2.05;;
59169;SDS011;52474;52.236;5.114;2023-01-30T09:35:19;14.13;;;1.90;;
59169;SDS011;52474;52.236;5.114;2023-01-30T09:37:48;14.98;;;2.92;;
59169;SDS011;52474;52.236;5.114;2023-01-30T09:49:07;12.68;;;2.58;;
59169;SDS011;52474;52.236;5.114;2023-01-30T09:54:14;17.73;;;2.88;;
59169;SDS011;52474;52.236;5.114;2023-01-30T09:56:49;21.03;;;2.57;;
59169;SDS011;52474;52.236;5.114;2023-01-30T09:59:23;10.60;;;2.13;;
59169;SDS011;52474;52.236;5.114;2023-01-30T10:04:28;13.70;;;2.33;;
59169;SDS011;52474;52.236;5.114;2023-01-30T10:07:15;13.15;;;2.70;;
59169;SDS011;52474;52.236;5.114;2023-01-30T10:18:19;9.88;;;1.90;;
59169;SDS011;52474;52.236;5.114;2023-01-30T10:21:25;7.50;;;2.42;;
59169;SDS011;52474;52.236;5.114;2023-01-30T10:26:36;19.55;;;3.03;;
59169;SDS011;52474;52.236;5.114;2023-01-30T10:29:17;16.42;;;3.00;;
59169;SDS011;52474;52.236;5.114;2023-01-30T10:34:24;11.82;;;2.58;;
59169;SDS011;52474;52.236;5.114;2023-01-30T10:39:46;17.83;;;3.00;;
59169;SDS011;52474;52.236;5.114;2023-01-30T10:42:21;17.08;;;2.85;;
59169;SDS011;52474;52.236;5.114;2023-01-30T10:44:53;14.02;;;1.80;;
59169;SDS011;52474;52.236;5.114;2023-01-30T10:53:34;16.05;;;2.50;;
59169;SDS011;52474;52.236;5.114;2023-01-30T10:56:07;12.57;;;2.92;;
59169;SDS011;52474;52.236;5.114;2023-01-30T10:58:45;16.65;;;3.22;;
59169;SDS011;52474;52.236;5.114;2023-01-30T11:04:03;12.93;;;2.30;;
59169;SDS011;52474;52.236;5.114;2023-01-30T11:06:37;16.77;;;2.75;;
59169;SDS011;52474;52.236;5.114;2023-01-30T11:09:02;14.45;;;2.10;;
59169;SDS011;52474;52.236;5.114;2023-01-30T11:11:30;13.50;;;2.92;;
59169;SDS011;52474;52.236;5.114;2023-01-30T11:14:06;16.05;;;2.83;;
59169;SDS011;52474;52.236;5.114;2023-01-30T11:16:47;11.10;;;2.70;;
59169;SDS011;52474;52.236;5.114;2023-01-30T11:19:14;14.98;;;2.60;;
59169;SDS011;52474;52.236;5.114;2023-01-30T11:21:45;16.02;;;2.58;;
59169;SDS011;52474;52.236;5.114;2023-01-30T11:24:49;21.85;;;3.47;;
59169;SDS011;52474;52.236;5.114;2023-01-30T11:29:41;15.60;;;3.95;;
59169;SDS011;52474;52.236;5.114;2023-01-30T11:32:11;18.65;;;2.72;;
59169;SDS011;52474;52.236;5.114;2023-01-30T11:34:44;16.27;;;2.95;;
59169;SDS011;52474;52.236;5.114;2023-01-30T11:37:45;15.10;;;2.75;;
59169;SDS011;52474;52.236;5.114;2023-01-30T11:42:39;19.67;;;3.92;;
59169;SDS011;52474;52.236;5.114;2023-01-30T11:45:10;14.93;;;2.47;;
59169;SDS011;52474;52.236;5.114;2023-01-30T11:47:36;18.13;;;3.15;;
59169;SDS011;52474;52.236;5.114;2023-01-30T11:50:15;16.38;;;2.65;;
59169;SDS011;52474;52.236;5.114;2023-01-30T11:52:43;13.88;;;3.60;;
59169;SDS011;52474;52.236;5.114;2023-01-30T11:55:14;19.25;;;3.08;;
59169;SDS011;52474;52.236;5.114;2023-01-30T11:57:44;20.58;;;2.92;;
59169;SDS011;52474;52.236;5.114;2023-01-30T12:05:23;27.90;;;3.10;;
59169;SDS011;52474;52.236;5.114;2023-01-30T12:08:10;18.88;;;2.50;;
59169;SDS011;52474;52.236;5.114;2023-01-30T12:10:42;22.27;;;3.15;;
59169;SDS011;52474;52.236;5.114;2023-01-30T12:13:28;17.20;;;2.53;;
59169;SDS011;52474;52.236;5.114;2023-01-30T12:18:37;21.58;;;3.90;;
59169;SDS011;52474;52.236;5.114;2023-01-30T12:27:34;20.05;;;3.35;;
59169;SDS011;52474;52.236;5.114;2023-01-30T12:30:09;16.50;;;2.95;;
59169;SDS011;52474;52.236;5.114;2023-01-30T12:32:58;16.33;;;2.13;;
59169;SDS011;52474;52.236;5.114;2023-01-30T12:41:30;15.30;;;1.95;;
59169;SDS011;52474;52.236;5.114;2023-01-30T12:49:26;13.50;;;2.50;;
59169;SDS011;52474;52.236;5.114;2023-01-30T12:52:35;18.88;;;2.63;;
59169;SDS011;52474;52.236;5.114;2023-01-30T12:58:17;24.40;;;3.75;;
59169;SDS011;52474;52.236;5.114;2023-01-30T13:01:07;15.35;;;2.33;;
59169;SDS011;52474;52.236;5.114;2023-01-30T13:03:55;13.82;;;2.05;;
59169;SDS011;52474;52.236;5.114;2023-01-30T13:20:43;19.20;;;2.95;;
59169;SDS011;52474;52.236;5.114;2023-01-30T13:31:17;9.10;;;2.13;;
59169;SDS011;52474;52.236;5.114;2023-01-30T13:33:47;12.98;;;2.15;;
59169;SDS011;52474;52.236;5.114;2023-01-30T13:36:26;14.02;;;2.75;;
59169;SDS011;52474;52.236;5.114;2023-01-30T13:39:14;11.60;;;2.00;;
59169;SDS011;52474;52.236;5.114;2023-01-30T13:41:50;12.18;;;2.45;;
59169;SDS011;52474;52.236;5.114;2023-01-30T13:44:27;15.38;;;2.90;;
59169;SDS011;52474;52.236;5.114;2023-01-30T13:46:55;14.32;;;2.30;;
59169;SDS011;52474;52.236;5.114;2023-01-30T13:52:08;16.17;;;1.95;;
59169;SDS011;52474;52.236;5.114;2023-01-30T13:55:05;18.08;;;2.70;;
59169;SDS011;52474;52.236;5.114;2023-01-30T13:57:59;10.70;;;2.42;;
59169;SDS011;52474;52.236;5.114;2023-01-30T14:00:52;18.55;;;3.22;;
59169;SDS011;52474;52.236;5.114;2023-01-30T14:08:34;9.15;;;2.20;;
59169;SDS011;52474;52.236;5.114;2023-01-30T14:13:57;11.80;;;1.80;;
59169;SDS011;52474;52.236;5.114;2023-01-30T14:16:43;12.35;;;2.40;;
59169;SDS011;52474;52.236;5.114;2023-01-30T14:21:52;12.20;;;2.33;;
59169;SDS011;52474;52.236;5.114;2023-01-30T14:24:20;19.00;;;3.10;;
59169;SDS011;52474;52.236;5.114;2023-01-30T14:40:00;11.10;;;3.30;;
59169;SDS011;52474;52.236;5.114;2023-01-30T14:42:28;19.25;;;2.67;;
59169;SDS011;52474;52.236;5.114;2023-01-30T14:45:13;15.57;;;2.03;;
59169;SDS011;52474;52.236;5.114;2023-01-30T14:47:40;17.63;;;2.30;;
59169;SDS011;52474;52.236;5.114;2023-01-30T14:50:15;12.43;;;2.35;;
59169;SDS011;52474;52.236;5.114;2023-01-30T14:52:45;13.40;;;2.22;;
59169;SDS011;52474;52.236;5.114;2023-01-30T14:55:19;18.63;;;2.55;;
59169;SDS011;52474;52.236;5.114;2023-01-30T14:57:52;8.07;;;2.08;;
59169;SDS011;52474;52.236;5.114;2023-01-30T15:00:26;16.15;;;2.55;;
59169;SDS011;52474;52.236;5.114;2023-01-30T15:03:07;13.15;;;2.10;;
59169;SDS011;52474;52.236;5.114;2023-01-30T15:05:42;9.65;;;1.88;;
59169;SDS011;52474;52.236;5.114;2023-01-30T15:08:18;14.98;;;2.15;;
59169;SDS011;52474;52.236;5.114;2023-01-30T15:10:51;18.63;;;2.40;;
59169;SDS011;52474;52.236;5.114;2023-01-30T15:13:53;20.25;;;2.42;;
59169;SDS011;52474;52.236;5.114;2023-01-30T15:27:37;13.80;;;2.80;;
59169;SDS011;52474;52.236;5.114;2023-01-30T15:30:31;13.35;;;3.13;;
59169;SDS011;52474;52.236;5.114;2023-01-30T15:35:41;16.63;;;2.58;;
59169;SDS011;52474;52.236;5.114;2023-01-30T15:38:21;14.98;;;2.10;;
59169;SDS011;52474;52.236;5.114;2023-01-30T15:40:55;17.92;;;3.00;;
59169;SDS011;52474;52.236;5.114;2023-01-30T15:51:15;19.38;;;3.38;;
59169;SDS011;52474;52.236;5.114;2023-01-30T15:53:46;11.10;;;2.50;;
59169;SDS011;52474;52.236;5.114;2023-01-30T15:56:19;16.60;;;2.92;;
59169;SDS011;52474;52.236;5.114;2023-01-30T15:58:48;18.67;;;2.65;;
59169;SDS011;52474;52.236;5.114;2023-01-30T16:01:21;16.00;;;2.67;;
59169;SDS011;52474;52.236;5.114;2023-01-30T16:03:47;16.85;;;2.53;;
59169;SDS011;52474;52.236;5.114;2023-01-30T16:06:23;14.32;;;3.45;;
59169;SDS011;52474;52.236;5.114;2023-01-30T16:08:55;12.70;;;1.95;;
59169;SDS011;52474;52.236;5.114;2023-01-30T16:11:38;15.15;;;2.25;;
59169;SDS011;52474;52.236;5.114;2023-01-30T16:14:13;24.00;;;3.08;;
59169;SDS011;52474;52.236;5.114;2023-01-30T16:16:46;16.05;;;2.60;;
59169;SDS011;52474;52.236;5.114;2023-01-30T16:19:28;20.95;;;3.22;;
59169;SDS011;52474;52.236;5.114;2023-01-30T16:22:00;15.95;;;3.33;;
59169;SDS011;52474;52.236;5.114;2023-01-30T16:24:30;14.73;;;2.55;;
59169;SDS011;52474;52.236;5.114;2023-01-30T16:26:59;12.32;;;2.83;;
59169;SDS011;52474;52.236;5.114;2023-01-30T16:29:27;15.03;;;2.67;;
59169;SDS011;52474;52.236;5.114;2023-01-30T16:31:55;16.33;;;3.25;;
59169;SDS011;52474;52.236;5.114;2023-01-30T16:34:32;14.13;;;2.75;;
59169;SDS011;52474;52.236;5.114;2023-01-30T16:37:04;17.45;;;3.28;;
59169;SDS011;52474;52.236;5.114;2023-01-30T16:39:43;19.98;;;3.85;;
59169;SDS011;52474;52.236;5.114;2023-01-30T16:42:19;14.63;;;2.42;;
59169;SDS011;52474;52.236;5.114;2023-01-30T16:44:46;14.80;;;2.97;;
59169;SDS011;52474;52.236;5.114;2023-01-30T16:47:25;16.02;;;2.60;;
59169;SDS011;52474;52.236;5.114;2023-01-30T16:49:53;12.35;;;2.22;;
59169;SDS011;52474;52.236;5.114;2023-01-30T16:52:43;12.55;;;1.85;;
59169;SDS011;52474;52.236;5.114;2023-01-30T16:55:17;18.10;;;2.60;;
59169;SDS011;52474;52.236;5.114;2023-01-30T16:57:50;23.73;;;4.22;;
59169;SDS011;52474;52.236;5.114;2023-01-30T17:00:31;21.05;;;5.82;;
59169;SDS011;52474;52.236;5.114;2023-01-30T17:03:23;41.35;;;13.27;;
59169;SDS011;52474;52.236;5.114;2023-01-30T17:05:52;12.90;;;3.03;;
59169;SDS011;52474;52.236;5.114;2023-01-30T17:14:08;18.00;;;3.05;;
59169;SDS011;52474;52.236;5.114;2023-01-30T17:17:01;17.05;;;4.82;;
59169;SDS011;52474;52.236;5.114;2023-01-30T17:19:30;19.30;;;4.60;;
59169;SDS011;52474;52.236;5.114;2023-01-30T17:21:56;15.57;;;2.83;;
59169;SDS011;52474;52.236;5.114;2023-01-30T17:24:24;12.55;;;2.22;;
59169;SDS011;52474;52.236;5.114;2023-01-30T17:26:52;6.97;;;1.52;;
59169;SDS011;52474;52.236;5.114;2023-01-30T17:29:26;18.80;;;2.30;;
59169;SDS011;52474;52.236;5.114;2023-01-30T17:31:54;11.55;;;1.83;;
59169;SDS011;52474;52.236;5.114;2023-01-30T17:34:21;17.27;;;2.92;;
59169;SDS011;52474;52.236;5.114;2023-01-30T17:36:47;12.02;;;2.10;;
59169;SDS011;52474;52.236;5.114;2023-01-30T17:39:17;10.32;;;2.08;;
59169;SDS011;52474;52.236;5.114;2023-01-30T17:41:44;12.88;;;2.65;;
59169;SDS011;52474;52.236;5.114;2023-01-30T17:44:11;14.18;;;3.40;;
59169;SDS011;52474;52.236;5.114;2023-01-30T17:49:21;17.88;;;3.22;;
59169;SDS011;52474;52.236;5.114;2023-01-30T17:51:49;13.65;;;3.10;;
59169;SDS011;52474;52.236;5.114;2023-01-30T17:54:16;13.57;;;2.35;;
59169;SDS011;52474;52.236;5.114;2023-01-30T17:56:51;11.32;;;2.30;;
59169;SDS011;52474;52.236;5.114;2023-01-30T17:59:21;19.63;;;4.82;;
59169;SDS011;52474;52.236;5.114;2023-01-30T18:01:48;20.40;;;5.32;;
59169;SDS011;52474;52.236;5.114;2023-01-30T18:04:15;13.82;;;3.20;;
59169;SDS011;52474;52.236;5.114;2023-01-30T18:06:42;15.98;;;2.58;;